METAR Data
IDs: Format: Raw Decoded Include TAF

Data at: 0918 UTC 20 Sep 2018

KEED 200856Z AUTO 14007KT 10SM CLR 29/17 A2975 RMK AO2 SLP038 T02940172 51013
KEED 200756Z AUTO 12008KT 10SM CLR 31/18 A2973 RMK AO2 SLP033 T03060178 404000278
KEED 200656Z AUTO 21008KT 10SM CLR 32/19 A2973 RMK AO2 SLP029 T03170189
KEED 200556Z AUTO 18009G18KT 10SM CLR 32/18 A2971 RMK AO2 SLP025 T03170183 10394 20317 51022
KEED 200456Z AUTO 21017G23KT 10SM CLR 33/18 A2969 RMK AO2 SLP017 T03280183
KEED 200356Z AUTO 19011KT 10SM CLR 33/17 A2968 RMK AO2 SLP015 T03330172
KEED 200256Z AUTO 23012KT 10SM CLR 35/11 A2964 RMK AO2 SLP002 T03500111 53012
KEED 200156Z AUTO 25008KT 10SM CLR 37/M01 A2962 RMK AO2 SLP995 T03671006
KEED 200056Z AUTO 25011KT 10SM CLR 38/01 A2962 RMK AO2 SLP993 T03830006
KEED 192356Z AUTO 27011G19KT 10SM CLR 39/06 A2961 RMK AO2 PK WND 24026/2257 SLP990 T03890056 10400 20356 56021
KEED 192256Z AUTO 20014G26KT 10SM CLR 39/09 A2961 RMK AO2 PK WND 21026/2256 SLP990 T03940089
KEED 192156Z AUTO 19013G22KT 10SM CLR 39/07 A2964 RMK AO2 SLP001 T03940072
KEED 192056Z AUTO 21009KT 10SM CLR 38/11 A2967 RMK AO2 SLP010 T03830111 58024
KEED 191956Z AUTO 21016KT 10SM CLR 38/13 A2970 RMK AO2 SLP021 T03780128
KEED 191856Z AUTO 19013G17KT 10SM CLR 37/15 A2972 RMK AO2 SLP028 T03670150
KEED 191756Z AUTO 12007KT 10SM CLR 36/14 A2974 RMK AO2 SLP035 T03610144 10361 20278 50003
KEED 191656Z AUTO 19012G15KT 10SM CLR 34/16 A2975 RMK AO2 SLP039 T03440156
KEED 191556Z AUTO 03003KT 10SM CLR 32/12 A2975 RMK AO2 SLP038 T03170117
KEED 191456Z AUTO 00000KT 10SM CLR 31/09 A2973 RMK AO2 SLP033 T03110089 53012
KEED 191356Z AUTO 34004KT 10SM CLR 28/M01 A2972 RMK AO2 SLP029 T02831006
KEED 191256Z AUTO 34005KT 10SM CLR 28/00 A2970 RMK AO2 SLP023 T02780000
KEED 191156Z AUTO 34003KT 10SM CLR 28/02 A2970 RMK AO2 SLP020 T02780017 10328 20278 55002
KEED 191056Z AUTO 21003KT 10SM CLR 30/00 A2969 RMK AO2 SLP018 T03000000
KEED 190956Z AUTO 00000KT 10SM CLR 30/M02 A2970 RMK AO2 SLP020 T03001022
KEED 190856Z AUTO 00000KT 10SM CLR 32/M03 A2970 RMK AO2 SLP019 T03221028 53002
KEED 190756Z AUTO 22008KT 10SM CLR 31/M04 A2969 RMK AO2 SLP016 T03061044 404220283
KEED 190656Z AUTO 22011KT 10SM CLR 32/M06 A2970 RMK AO2 SLP019 T03171056
KEED 190556Z AUTO 24010KT 10SM CLR 33/M04 A2970 RMK AO2 SLP018 T03281044 10411 20322 51005
KEED 190456Z AUTO 24006KT 10SM CLR 33/M06 A2969 RMK AO2 SLP017 T03281061
KEED 190356Z AUTO 25009KT 10SM CLR 34/M06 A2969 RMK AO2 SLP019 T03391061
KEED 190256Z AUTO 24007KT 10SM CLR 35/M06 A2968 RMK AO2 SLP016 T03501061 53001
KEED 190156Z AUTO 26007KT 10SM CLR 38/M06 A2967 RMK AO2 SLP011 T03781056
KEED 190056Z AUTO 26013KT 10SM CLR 40/M04 A2967 RMK AO2 SLP008 T04001044
KEED 182356Z AUTO 25014KT 10SM CLR 41/M06 A2968 RMK AO2 SLP012 T04111056 10422 20383 56017
KEED 182256Z AUTO 22011G19KT 10SM CLR 41/M06 A2970 RMK AO2 SLP016 T04111061
KEED 182156Z AUTO 22012G19KT 10SM CLR 41/M08 A2971 RMK AO2 SLP023 T04111078